createdAt,value
2022-10-06T00:00:26.969Z,5.53
2022-10-06T00:02:55.333Z,5.40
2022-10-06T00:05:30.238Z,5.57
2022-10-06T00:08:01.025Z,5.23
2022-10-06T00:10:29.408Z,6.00
2022-10-06T00:12:58.179Z,5.23
2022-10-06T00:15:29.908Z,6.37
2022-10-06T00:17:59.634Z,5.70
2022-10-06T00:20:29.205Z,5.70
2022-10-06T00:22:58.451Z,5.13
2022-10-06T00:25:29.055Z,5.30
2022-10-06T00:27:58.273Z,5.43
2022-10-06T00:30:29.217Z,5.17
2022-10-06T00:32:59.283Z,5.40
2022-10-06T00:35:35.653Z,5.20
2022-10-06T00:38:05.187Z,5.80
2022-10-06T00:40:38.354Z,5.43
2022-10-06T00:43:42.465Z,5.67
2022-10-06T00:46:14.846Z,5.23
2022-10-06T00:48:43.831Z,5.47
2022-10-06T00:51:14.381Z,5.73
2022-10-06T00:53:44.272Z,5.43
2022-10-06T00:56:15.042Z,5.33
2022-10-06T00:58:44.229Z,5.30
2022-10-06T01:01:14.459Z,4.73
2022-10-06T01:03:47.067Z,5.13
2022-10-06T01:06:22.254Z,5.13
2022-10-06T01:08:51.315Z,4.97
2022-10-06T01:11:21.013Z,4.43
2022-10-06T01:13:55.669Z,4.77
2022-10-06T01:16:27.113Z,5.00
2022-10-06T01:18:57.244Z,4.80
2022-10-06T01:21:33.064Z,5.00
2022-10-06T01:24:06.222Z,4.77
2022-10-06T01:26:37.100Z,4.73
2022-10-06T01:29:07.594Z,4.97
2022-10-06T01:31:37.405Z,4.50
2022-10-06T01:34:10.392Z,4.50
2022-10-06T01:36:42.439Z,4.53
2022-10-06T01:39:12.256Z,4.60
2022-10-06T01:41:41.239Z,4.40
2022-10-06T01:44:09.439Z,4.40
2022-10-06T01:47:02.818Z,4.30
2022-10-06T01:49:31.239Z,4.03
2022-10-06T01:52:01.069Z,4.30
2022-10-06T01:54:31.297Z,4.40
2022-10-06T01:56:59.563Z,4.63
2022-10-06T01:59:28.905Z,4.20
2022-10-06T02:01:57.217Z,4.60
2022-10-06T02:04:25.520Z,4.20
2022-10-06T02:06:56.073Z,4.23
2022-10-06T02:09:28.429Z,4.07
2022-10-06T02:11:58.560Z,4.47
2022-10-06T02:14:34.326Z,4.20
2022-10-06T02:17:03.021Z,4.70
2022-10-06T02:19:32.271Z,4.20
2022-10-06T02:22:00.458Z,3.70
2022-10-06T02:24:28.808Z,4.43
2022-10-06T02:26:58.635Z,4.57
2022-10-06T02:29:29.486Z,4.47
2022-10-06T02:31:57.940Z,4.50
2022-10-06T02:34:26.709Z,4.17
2022-10-06T02:36:56.104Z,4.47
2022-10-06T02:39:30.336Z,4.03
2022-10-06T02:42:00.252Z,4.73
2022-10-06T02:44:29.321Z,4.10
2022-10-06T02:46:58.027Z,3.90
2022-10-06T02:49:27.297Z,4.13
2022-10-06T02:51:58.517Z,4.47
2022-10-06T02:54:27.266Z,4.50
2022-10-06T02:56:56.103Z,4.40
2022-10-06T02:59:26.283Z,4.40
2022-10-06T03:01:55.325Z,4.27
2022-10-06T03:04:27.701Z,4.40
2022-10-06T03:06:56.287Z,4.13
2022-10-06T03:09:30.395Z,4.83
2022-10-06T03:12:02.025Z,4.40
2022-10-06T03:15:03.851Z,4.50
2022-10-06T03:17:35.518Z,3.90
2022-10-06T03:20:08.297Z,4.10
2022-10-06T03:22:36.500Z,4.30
2022-10-06T03:25:05.097Z,3.77
2022-10-06T03:27:34.101Z,4.27
2022-10-06T03:30:09.343Z,4.20
2022-10-06T03:32:38.386Z,4.73
2022-10-06T03:35:14.382Z,4.33
2022-10-06T03:37:43.254Z,4.00
2022-10-06T03:40:12.477Z,3.80
2022-10-06T03:42:41.323Z,4.10
2022-10-06T03:45:12.305Z,4.43
2022-10-06T03:47:43.708Z,4.40
2022-10-06T03:50:12.289Z,4.07
2022-10-06T03:52:40.451Z,4.13
2022-10-06T03:55:09.391Z,4.10
2022-10-06T03:57:38.177Z,4.50
2022-10-06T04:00:11.619Z,3.87
2022-10-06T04:02:40.463Z,4.30
2022-10-06T04:05:10.292Z,4.27
2022-10-06T04:07:41.318Z,4.47
2022-10-06T04:10:11.279Z,4.30
2022-10-06T04:12:39.612Z,4.30
2022-10-06T04:15:08.656Z,4.70
2022-10-06T04:17:42.284Z,4.43
2022-10-06T04:20:10.644Z,4.37
2022-10-06T04:22:40.019Z,4.00
2022-10-06T04:25:09.338Z,4.20
2022-10-06T04:27:38.340Z,4.40
2022-10-06T04:30:15.942Z,4.50
2022-10-06T04:32:46.741Z,4.63
2022-10-06T04:35:18.312Z,4.53
2022-10-06T04:37:46.838Z,4.60
2022-10-06T04:40:16.357Z,4.33
2022-10-06T04:42:45.861Z,4.57
2022-10-06T04:45:17.361Z,4.63
2022-10-06T04:47:51.132Z,4.70
2022-10-06T04:50:22.442Z,5.87
2022-10-06T04:53:06.424Z,4.50
2022-10-06T04:55:34.844Z,4.60
2022-10-06T04:58:03.980Z,5.03
2022-10-06T05:00:33.193Z,4.37
2022-10-06T05:03:03.672Z,4.60
2022-10-06T05:05:33.162Z,4.40
2022-10-06T05:08:01.372Z,4.47
2022-10-06T05:10:34.097Z,4.37
2022-10-06T05:13:11.574Z,4.67
2022-10-06T05:15:40.756Z,4.33
2022-10-06T05:18:11.376Z,4.33
2022-10-06T05:20:40.179Z,5.77
2022-10-06T05:23:08.599Z,4.80
2022-10-06T05:25:38.228Z,4.43
2022-10-06T05:28:07.665Z,4.70
2022-10-06T05:30:36.313Z,4.07
2022-10-06T05:33:05.412Z,4.50
2022-10-06T05:35:38.017Z,4.30
2022-10-06T05:38:09.764Z,4.27
2022-10-06T05:40:38.168Z,4.60
2022-10-06T05:43:10.329Z,4.87
2022-10-06T05:45:42.463Z,4.80
2022-10-06T05:48:11.021Z,5.07
2022-10-06T05:50:42.326Z,4.77
2022-10-06T05:53:11.730Z,4.70
2022-10-06T05:55:39.886Z,4.73
2022-10-06T05:58:32.186Z,4.50
2022-10-06T06:01:09.349Z,4.30
2022-10-06T06:03:39.420Z,4.87
2022-10-06T06:06:17.482Z,4.87
2022-10-06T06:08:47.373Z,4.93
2022-10-06T06:11:16.127Z,4.97
2022-10-06T06:13:45.096Z,5.10
2022-10-06T06:16:16.574Z,4.87
2022-10-06T06:18:45.055Z,4.33
2022-10-06T06:21:17.381Z,5.13
2022-10-06T06:23:47.232Z,5.30
2022-10-06T06:26:23.537Z,5.03
2022-10-06T06:28:53.722Z,4.90
2022-10-06T06:31:48.616Z,5.47
2022-10-06T06:34:17.419Z,5.90
2022-10-06T06:36:54.213Z,5.70
2022-10-06T06:39:26.547Z,5.30
2022-10-06T06:41:55.211Z,5.60
2022-10-06T06:44:42.403Z,5.17
2022-10-06T06:47:40.383Z,5.20
2022-10-06T06:50:10.808Z,5.47
2022-10-06T06:52:43.968Z,5.07
2022-10-06T06:55:15.592Z,5.60
2022-10-06T06:57:49.614Z,5.50
2022-10-06T07:00:20.399Z,5.30
2022-10-06T07:02:56.132Z,6.20
2022-10-06T07:05:25.211Z,5.97
2022-10-06T07:07:55.472Z,6.53
2022-10-06T07:10:24.299Z,6.57
2022-10-06T07:12:53.332Z,6.23
2022-10-06T07:15:41.565Z,5.33
2022-10-06T07:18:29.307Z,5.60
2022-10-06T07:21:15.235Z,4.73
2022-10-06T07:24:04.216Z,5.13
2022-10-06T07:26:33.101Z,4.67
2022-10-06T07:29:02.381Z,4.80
2022-10-06T07:31:37.815Z,5.23
2022-10-06T07:34:06.601Z,4.93
2022-10-06T07:36:34.991Z,5.93
2022-10-06T07:39:10.579Z,6.00
2022-10-06T07:41:39.504Z,5.07
2022-10-06T07:44:08.260Z,4.97
2022-10-06T07:46:42.176Z,4.80
2022-10-06T07:49:14.757Z,5.00
2022-10-06T07:51:43.192Z,4.97
2022-10-06T07:54:12.979Z,4.50
2022-10-06T07:56:54.166Z,4.90
2022-10-06T07:59:25.811Z,4.97
2022-10-06T08:01:54.896Z,4.73
2022-10-06T08:04:24.417Z,4.37
2022-10-06T08:06:52.512Z,4.90
2022-10-06T08:09:26.224Z,4.80
2022-10-06T08:11:55.443Z,4.77
2022-10-06T08:14:24.452Z,4.70
2022-10-06T08:16:53.889Z,5.07
2022-10-06T08:19:23.442Z,5.50
2022-10-06T08:21:54.352Z,4.73
2022-10-06T08:24:23.992Z,5.43
2022-10-06T08:26:53.273Z,5.07
2022-10-06T08:29:22.802Z,4.93
2022-10-06T08:31:50.948Z,4.50
2022-10-06T08:34:21.684Z,4.57
2022-10-06T08:37:08.722Z,4.33
2022-10-06T08:39:45.353Z,4.43
2022-10-06T08:42:20.300Z,4.33
2022-10-06T08:44:51.594Z,4.30
2022-10-06T08:47:24.473Z,4.57
2022-10-06T08:49:55.585Z,4.47
2022-10-06T08:52:46.282Z,5.27
2022-10-06T08:55:30.293Z,4.10
2022-10-06T08:58:36.579Z,5.27
2022-10-06T09:01:18.756Z,5.00
2022-10-06T09:03:49.391Z,5.43
2022-10-06T09:06:28.312Z,5.97
2022-10-06T09:09:02.457Z,6.20
2022-10-06T09:11:51.296Z,6.00
2022-10-06T09:14:26.901Z,5.33
2022-10-06T09:17:01.325Z,5.93
2022-10-06T09:19:44.495Z,5.07
2022-10-06T09:22:19.699Z,4.07
2022-10-06T09:24:51.307Z,4.30
2022-10-06T09:27:24.029Z,3.55
2022-10-06T09:29:54.482Z,3.53
2022-10-06T09:32:25.468Z,3.47
2022-10-06T09:34:56.137Z,3.30
2022-10-06T09:37:27.572Z,3.28
2022-10-06T09:39:56.732Z,3.07
2022-10-06T09:42:29.736Z,3.55
2022-10-06T09:45:05.876Z,3.50
2022-10-06T09:47:42.281Z,3.20
2022-10-06T09:50:23.495Z,3.10
2022-10-06T09:53:16.813Z,2.85
2022-10-06T09:55:54.579Z,3.13
2022-10-06T09:58:34.277Z,3.20
2022-10-06T10:01:04.818Z,3.20
2022-10-06T10:04:01.866Z,3.00
2022-10-06T10:06:36.362Z,2.80
2022-10-06T10:09:28.893Z,2.97
2022-10-06T10:12:32.184Z,2.92
2022-10-06T10:15:08.264Z,2.63
2022-10-06T10:17:41.492Z,3.10
2022-10-06T10:20:28.349Z,3.00
2022-10-06T10:22:58.678Z,3.30
2022-10-06T10:25:44.723Z,2.97
2022-10-06T10:28:25.549Z,3.05
2022-10-06T10:31:04.399Z,3.30
2022-10-06T10:33:49.681Z,3.10
2022-10-06T10:36:35.618Z,3.15
2022-10-06T10:39:08.348Z,2.53
2022-10-06T10:41:47.040Z,3.20
2022-10-06T10:44:28.148Z,2.80
2022-10-06T10:47:07.360Z,3.10
2022-10-06T10:49:37.532Z,2.95
2022-10-06T10:52:14.405Z,3.20
2022-10-06T10:54:48.540Z,3.47
2022-10-06T10:57:43.893Z,2.92
2022-10-06T11:00:20.841Z,2.95
2022-10-06T11:02:53.362Z,3.00
2022-10-06T11:05:36.990Z,2.70
2022-10-06T11:08:12.229Z,2.90
2022-10-06T11:10:52.628Z,2.67
2022-10-06T11:13:28.075Z,3.33
2022-10-06T11:16:28.481Z,3.28
2022-10-06T11:19:17.303Z,2.55
2022-10-06T11:21:56.494Z,3.47
2022-10-06T11:24:34.570Z,2.90
2022-10-06T11:27:21.381Z,3.25
2022-10-06T11:30:02.351Z,2.78
2022-10-06T11:32:44.568Z,2.35
2022-10-06T11:35:23.832Z,2.33
2022-10-06T11:37:59.053Z,2.70
2022-10-06T11:40:48.957Z,2.20
2022-10-06T11:43:29.741Z,2.67
2022-10-06T11:46:05.665Z,2.35
2022-10-06T11:48:35.867Z,1.90
2022-10-06T11:51:41.683Z,2.35
2022-10-06T11:54:37.241Z,2.38
2022-10-06T11:57:35.627Z,2.20
2022-10-06T12:00:58.404Z,2.65
2022-10-06T12:04:13.541Z,2.42
2022-10-06T12:07:02.445Z,2.47
2022-10-06T12:10:16.591Z,2.28
2022-10-06T12:13:06.810Z,2.35
2022-10-06T12:19:12.136Z,2.38
2022-10-06T12:21:47.243Z,2.63
2022-10-06T12:24:41.438Z,2.40
2022-10-06T12:27:33.298Z,2.45
2022-10-06T12:30:07.622Z,2.72
2022-10-06T12:32:47.664Z,2.60
2022-10-06T12:35:34.581Z,2.60
2022-10-06T12:38:07.451Z,2.25
2022-10-06T12:40:51.310Z,2.00
2022-10-06T12:43:33.413Z,2.20
2022-10-06T12:46:05.053Z,2.10
2022-10-06T12:48:41.594Z,2.25
2022-10-06T12:51:23.501Z,2.10
2022-10-06T12:53:59.446Z,2.17
2022-10-06T12:56:33.437Z,1.83
2022-10-06T12:59:24.359Z,2.60
2022-10-06T13:01:56.458Z,2.20
2022-10-06T13:04:37.684Z,2.10
2022-10-06T13:07:15.409Z,2.25
2022-10-06T13:09:44.588Z,1.88
2022-10-06T13:12:35.008Z,1.98
2022-10-06T13:15:17.667Z,2.13
2022-10-06T13:17:50.889Z,2.40
2022-10-06T13:20:27.025Z,2.08
2022-10-06T13:23:00.224Z,1.90
2022-10-06T13:25:36.441Z,1.70
2022-10-06T13:28:06.689Z,1.67
2022-10-06T13:30:39.026Z,1.65
2022-10-06T13:33:09.428Z,1.60
2022-10-06T13:35:39.654Z,1.38
2022-10-06T13:38:08.058Z,1.40
2022-10-06T13:40:44.974Z,1.60
2022-10-06T13:43:22.965Z,1.58
2022-10-06T13:45:54.053Z,1.23
2022-10-06T13:48:24.207Z,1.80
2022-10-06T13:50:53.247Z,1.80
2022-10-06T13:53:30.337Z,1.55
2022-10-06T13:55:59.740Z,1.60
2022-10-06T13:58:31.668Z,1.80
2022-10-06T14:01:04.544Z,1.70
2022-10-06T14:06:16.073Z,1.48
2022-10-06T14:08:49.541Z,1.65
2022-10-06T14:11:24.223Z,1.83
2022-10-06T14:13:57.680Z,1.77
2022-10-06T14:16:27.619Z,1.73
2022-10-06T14:18:58.530Z,2.13
2022-10-06T14:21:34.414Z,1.95
2022-10-06T14:24:07.630Z,2.00
2022-10-06T14:26:39.490Z,2.15
2022-10-06T14:29:09.215Z,2.35
2022-10-06T14:31:38.212Z,2.42
2022-10-06T14:34:13.959Z,2.45
2022-10-06T14:36:44.467Z,2.33
2022-10-06T14:39:14.376Z,2.35
2022-10-06T14:41:47.484Z,2.40
2022-10-06T14:44:17.365Z,2.08
2022-10-06T14:46:49.627Z,1.83
2022-10-06T14:49:22.102Z,1.83
2022-10-06T14:51:50.245Z,1.92
2022-10-06T14:54:19.197Z,1.70
2022-10-06T14:56:47.447Z,1.70
2022-10-06T14:59:18.215Z,2.15
2022-10-06T15:01:47.294Z,3.33
2022-10-06T15:04:20.475Z,1.65
2022-10-06T15:07:06.127Z,2.10
2022-10-06T15:09:35.670Z,1.58
2022-10-06T15:12:07.599Z,1.60
2022-10-06T15:14:39.834Z,1.77
2022-10-06T15:17:08.469Z,1.95
2022-10-06T15:19:37.735Z,1.65
2022-10-06T15:22:07.662Z,1.50
2022-10-06T15:24:35.983Z,1.73
2022-10-06T15:27:24.896Z,1.65
2022-10-06T15:29:57.534Z,1.50
2022-10-06T15:32:25.883Z,1.60
2022-10-06T15:34:55.255Z,1.90
2022-10-06T15:37:24.634Z,1.30
2022-10-06T15:39:53.240Z,1.48
2022-10-06T15:42:24.160Z,1.42
2022-10-06T15:44:52.492Z,1.65
2022-10-06T15:47:22.133Z,1.50
2022-10-06T15:49:50.276Z,1.92
2022-10-06T15:52:18.973Z,1.48
2022-10-06T15:54:49.888Z,1.83
2022-10-06T15:57:21.623Z,1.77
2022-10-06T15:59:50.220Z,1.80
2022-10-06T16:02:21.107Z,1.50
2022-10-06T16:05:17.820Z,1.60
2022-10-06T16:07:45.987Z,1.60
2022-10-06T16:10:14.724Z,1.40
2022-10-06T16:12:42.975Z,1.70
2022-10-06T16:15:11.843Z,1.73
2022-10-06T16:17:40.712Z,1.20
2022-10-06T16:20:11.918Z,1.00
2022-10-06T16:22:40.411Z,1.50
2022-10-06T16:25:09.609Z,1.40
2022-10-06T16:27:37.781Z,1.60
2022-10-06T16:30:07.505Z,1.67
2022-10-06T16:32:36.166Z,2.07
2022-10-06T16:35:04.731Z,2.20
2022-10-06T16:37:34.281Z,2.20
2022-10-06T16:40:02.897Z,2.13
2022-10-06T16:42:31.176Z,2.40
2022-10-06T16:44:59.308Z,1.90
2022-10-06T16:47:30.891Z,2.03
2022-10-06T16:49:59.021Z,2.37
2022-10-06T16:52:27.737Z,1.63
2022-10-06T16:54:57.509Z,1.87
2022-10-06T16:57:25.674Z,1.80
2022-10-06T16:59:56.440Z,1.90
2022-10-06T17:02:24.645Z,1.93
2022-10-06T17:04:53.569Z,2.10
2022-10-06T17:07:21.852Z,1.80
2022-10-06T17:10:08.512Z,1.87
2022-10-06T17:12:40.818Z,1.77
2022-10-06T17:15:10.985Z,1.90
2022-10-06T17:17:39.580Z,1.90
2022-10-06T17:20:08.568Z,2.37
2022-10-06T17:22:36.842Z,2.30
2022-10-06T17:25:06.374Z,2.30
2022-10-06T17:27:41.944Z,2.43
2022-10-06T17:30:15.477Z,2.40
2022-10-06T17:32:47.381Z,2.00
2022-10-06T17:35:15.805Z,2.33
2022-10-06T17:37:43.929Z,1.77
2022-10-06T17:40:15.387Z,2.07
2022-10-06T17:42:43.739Z,2.03
2022-10-06T17:45:17.656Z,2.50
2022-10-06T17:47:51.809Z,1.93
2022-10-06T17:50:20.154Z,2.10
2022-10-06T17:52:48.336Z,2.10
2022-10-06T17:55:16.692Z,2.50
2022-10-06T17:57:44.910Z,2.33
2022-10-06T18:00:17.781Z,2.53
2022-10-06T18:02:46.382Z,2.23
2022-10-06T18:05:16.055Z,2.10
2022-10-06T18:07:44.365Z,2.20
2022-10-06T18:10:32.186Z,2.67
2022-10-06T18:13:00.392Z,2.47
2022-10-06T18:15:29.933Z,2.10
2022-10-06T18:17:58.055Z,2.30
2022-10-06T18:20:30.021Z,2.60
2022-10-06T18:22:58.611Z,2.60
2022-10-06T18:25:28.594Z,2.73
2022-10-06T18:27:56.912Z,3.00
2022-10-06T18:30:29.468Z,2.80
2022-10-06T18:38:44.859Z,3.83
2022-10-06T18:41:18.508Z,2.97
2022-10-06T18:43:46.783Z,3.40
2022-10-06T18:46:33.619Z,4.20
2022-10-06T18:49:11.160Z,3.60
2022-10-06T18:51:41.465Z,3.83
2022-10-06T18:54:15.523Z,2.93
2022-10-06T18:56:50.608Z,2.50
2022-10-06T18:59:23.452Z,3.20
2022-10-06T19:01:55.102Z,3.17
2022-10-06T19:04:25.596Z,2.60
2022-10-06T19:06:57.443Z,3.17
2022-10-06T19:09:26.905Z,3.60
2022-10-06T19:11:57.810Z,3.80
2022-10-06T19:14:27.801Z,39.30
2022-10-06T19:16:58.971Z,6.53
2022-10-06T19:19:32.914Z,4.53
2022-10-06T19:22:03.097Z,3.87
2022-10-06T19:24:37.235Z,4.40
2022-10-06T19:27:14.940Z,4.50
2022-10-06T19:29:50.719Z,4.43
2022-10-06T19:32:26.946Z,5.33
2022-10-06T19:34:59.006Z,4.43
2022-10-06T19:37:31.470Z,4.50
2022-10-06T19:40:02.182Z,4.00
2022-10-06T19:42:47.836Z,3.90
2022-10-06T19:45:17.333Z,4.20
2022-10-06T19:47:52.507Z,4.03
2022-10-06T19:50:22.027Z,5.20
2022-10-06T19:52:51.743Z,4.57
2022-10-06T19:55:23.131Z,4.40
2022-10-06T19:57:51.968Z,4.17
2022-10-06T20:00:20.423Z,4.00
2022-10-06T20:02:49.684Z,12.10
2022-10-06T20:05:18.287Z,8.67
2022-10-06T20:07:48.720Z,8.60
2022-10-06T20:10:17.010Z,6.30
2022-10-06T20:12:50.166Z,4.67
2022-10-06T20:15:19.774Z,5.57
2022-10-06T20:17:48.233Z,5.20
2022-10-06T20:20:20.458Z,4.67
2022-10-06T20:22:50.674Z,4.53
2022-10-06T20:25:19.036Z,4.83
2022-10-06T20:27:47.364Z,4.77
2022-10-06T20:30:15.833Z,10.13
2022-10-06T20:32:43.953Z,9.07
2022-10-06T20:35:12.351Z,7.90
2022-10-06T20:37:42.065Z,6.77
2022-10-06T20:40:32.330Z,4.90
2022-10-06T20:43:04.822Z,6.13
2022-10-06T20:45:32.925Z,5.83
2022-10-06T20:48:02.537Z,5.60
2022-10-06T20:50:32.075Z,4.93
2022-10-06T20:53:00.239Z,4.90
2022-10-06T20:55:35.205Z,4.53
2022-10-06T20:58:04.267Z,4.70
2022-10-06T21:00:32.711Z,5.80
2022-10-06T21:03:02.936Z,5.17
2022-10-06T21:05:37.265Z,5.30
2022-10-06T21:08:05.898Z,5.10
2022-10-06T21:10:35.967Z,5.03
2022-10-06T21:13:04.180Z,4.70
2022-10-06T21:15:32.914Z,6.10
2022-10-06T21:18:05.250Z,6.07
2022-10-06T21:20:35.235Z,6.50
2022-10-06T21:23:03.629Z,6.87
2022-10-06T21:25:31.774Z,6.97
2022-10-06T21:28:04.767Z,6.70
2022-10-06T21:30:36.658Z,6.40
2022-10-06T21:33:04.977Z,5.80
2022-10-06T21:35:37.132Z,6.20
2022-10-06T21:38:08.258Z,6.60
2022-10-06T21:40:37.457Z,6.27
2022-10-06T21:43:07.904Z,8.80
2022-10-06T21:45:39.436Z,11.67
2022-10-06T21:48:10.606Z,8.70
2022-10-06T21:50:39.986Z,7.80
2022-10-06T21:53:08.272Z,7.23
2022-10-06T21:55:40.747Z,6.90
2022-10-06T21:58:10.942Z,6.40
2022-10-06T22:00:40.915Z,7.10
2022-10-06T22:03:09.152Z,6.53
2022-10-06T22:05:37.903Z,7.30
2022-10-06T22:08:06.102Z,7.17
2022-10-06T22:10:34.932Z,7.53
2022-10-06T22:13:06.584Z,7.50
2022-10-06T22:15:38.967Z,7.30
2022-10-06T22:18:31.744Z,7.30
2022-10-06T22:21:00.037Z,7.87
2022-10-06T22:23:32.449Z,8.03
2022-10-06T22:26:00.706Z,6.83
2022-10-06T22:28:30.972Z,7.93
2022-10-06T22:31:09.941Z,6.50
2022-10-06T22:33:40.938Z,8.07
2022-10-06T22:36:11.283Z,9.03
2022-10-06T22:38:45.284Z,8.27
2022-10-06T22:41:15.416Z,8.53
2022-10-06T22:43:43.579Z,7.93
2022-10-06T22:46:14.005Z,8.47
2022-10-06T22:48:42.934Z,9.00
2022-10-06T22:51:14.525Z,8.73
2022-10-06T22:53:43.774Z,8.30
2022-10-06T22:56:11.926Z,8.67
2022-10-06T22:58:44.926Z,9.27
2022-10-06T23:01:18.277Z,9.27
2022-10-06T23:03:48.109Z,9.17
2022-10-06T23:06:18.768Z,9.23
2022-10-06T23:08:50.689Z,9.97
2022-10-06T23:11:21.775Z,9.60
2022-10-06T23:13:57.303Z,10.30
2022-10-06T23:16:26.990Z,9.80
2022-10-06T23:18:56.108Z,9.97
2022-10-06T23:21:27.610Z,10.67
2022-10-06T23:23:58.950Z,11.20
2022-10-06T23:26:27.412Z,10.10
2022-10-06T23:28:57.963Z,10.33
2022-10-06T23:31:28.799Z,9.27
2022-10-06T23:34:00.949Z,9.20
2022-10-06T23:36:29.085Z,10.57
2022-10-06T23:38:57.939Z,10.33
2022-10-06T23:41:26.145Z,9.53
2022-10-06T23:44:01.357Z,10.33
2022-10-06T23:46:32.026Z,9.80
2022-10-06T23:49:00.950Z,10.47
2022-10-06T23:51:32.789Z,10.00
2022-10-06T23:54:01.952Z,9.20
2022-10-06T23:56:31.293Z,10.20
2022-10-06T23:58:59.983Z,11.03
